Burbank, CA (91508)

6:59 PM PDT on September 23, 2014 (GMT -0700)
Magnolia Park | Change Station
CLOSE
Current Station
Personal Weather Station
Location: Burbank, CA
Elevation: 556 ft
Nearby Weather Stations

Elev 556 ft 34.17 °N, 118.33 °W | Updated 14 minutes ago

Clear
Clear
80.1 °F
Feels Like 80 °F
N
0.0
Wind Variable Wind from South
Gusts 6.0 mph

Today
High -- | Low -- °F
--% Chance of Precip.
Yesterday
High -- | Low -- °F
Precip. -- in
6:42 AM 6:48 PM
Waning Crescent, 0% visible
Pressure 29.85 in
Visibility 10.0 miles
Clouds Clear
Heat Index 80 °F
Dew Point 55 °F
Humidity 43%
Rainfall 0.00 in
Snow Depth 0 in , 0 in , 0 in
UV 0 out of 12
Pollen 5.70 out of 12
Ozone Good
PM2.5 Good
Flu Activity Not available.
METAR KBUR 240153Z 17003KT 10SM CLR 26/11 A2989 RMK AO2 SLP108 T02610111

More Conditions Fewer Conditions

Pressure 29.85 in
Visibility 10.0 miles
Clouds Clear
Heat Index 80 °F
Dew Point 55 °F
Humidity 43%
Rainfall 0.00 in
Snow Depth 0 in , 0 in , 0 in
UV 0 out of 12
Pollen 5.70 out of 12
Ozone Good
PM2.5 Good
Flu Activity Not available.
METAR KBUR 240153Z 17003KT 10SM CLR 26/11 A2989 RMK AO2 SLP108 T02610111

More Conditions Fewer Conditions

10-Day Weather Forecast

Almanac

Astronomy

Sep. 23, 2014 Rise Set
Actual Time 6:42 AM PDT 6:48 PM PDT
Civil Twilight 6:17 AM PDT 7:13 PM PDT
Nautical Twilight 5:47 AM PDT 7:42 PM PDT
Astronomical Twilight 5:18 AM PDT 8:12 PM PDT
Moon 6:11 AM PDT (9/23) 6:30 PM PDT (9/23)
Length of Visible Light 12h 56m
Length of Day
12h 06m
Tomorrow will be 2m 6s shorter.
Waning Crescent, 0% of the Moon is Illuminated
Today
Waning Crescent
Sep 24
New
Oct 1
First Quarter
Oct 8
Full
Oct 15
Last Quarter

Today's Extremes

State Highs State Lows

Community

WunderPhotos

Upload Photos

1,755,844 photos uploaded!

Nearby

Air Quality

  Air Quality AQ Index Pollutant
Yesterday Moderate
PM2.5
Yesterday Good
OZONE
Current Good
PM2.5
Current Good
OZONE
Wednesday Good
PM10
Wednesday Good
OZONE
Wednesday Good
CO
Wednesday Good
NO2

Snow Depth

Station Depth Elevation
Tahoe City Cross 0 in 6750 ft
Summit Meadow 0 in 9122 ft
Leavitt Meadows 0 in 7200 ft
Leavitt Lake 0 in 9400 ft
Blue Lakes 0 in 8000 ft

Earthquake Activity

City Distance Mag. Time & Date
Running Springs, California 74 miles 2.5 7:26 AM PDT
2014-09-22
Borrego Springs, California 130 miles 2.6 7:34 AM PDT
2014-09-21
Minimum magnitude displayed is 2.5.

Coastal Water Temperatures

Place Temperature
Santa Monica Pier 71.1 °F
Los Angeles, CA 66.9 °F
La Jolla, CA 70.0 °F

Nearby Weather Stations